Terminal Aerodrome Forecast
Issued by NWS

Current Version | Previous Version | Text Only | Print | Product List | Glossary Off
Versions: 1 2 3 4 5 6 7 8 9 10 11 12 13 14 15

000
FTUS44 KCRP 031733
TAFLRD
TAF
KLRD 031733Z 0318/0418 14017G25KT P6SM FEW050
     FM040300 14012KT P6SM FEW025
     FM041000 13009KT P6SM BKN025
      TEMPO 0412/0414 BKN015
     FM041600 15015KT P6SM BKN050=

USA.gov is the U.S. government's official web portal to all federal, state and local government web resources and services.